Terminal Aerodrome Forecast
Issued by NWS

Home | Current Version | Previous Version | Text Only | Print | Product List | Glossary On
Versions: 1 2 3 4 5 6 7 8 9 10 11 12 13 14 15
000
FTUS45 KSLC 261422 AAB
TAFLGU
TAF AMD
KLGU 261422Z 2614/2712 VRB05KT P6SM -SHRA BKN050 BKN100
      TEMPO 2614/2615 3SM RA BKN020 OVC050
     FM261600 29006KT P6SM FEW080 SCT120
     FM270400 15007KT P6SM SCT100 SCT180=

USA.gov is the U.S. government's official web portal to all federal, state and local government web resources and services.